createdAt,value
2023-04-18T00:00:15.553Z,66.38
2023-04-18T00:01:15.573Z,66.72
2023-04-18T00:02:15.634Z,67.23
2023-04-18T00:03:15.893Z,67.36
2023-04-18T00:04:16.061Z,67.43
2023-04-18T00:05:15.744Z,67.26
2023-04-18T00:06:15.728Z,67.64
2023-04-18T00:07:15.764Z,67.26
2023-04-18T00:08:15.765Z,67.02
2023-04-18T00:09:15.790Z,66.82
2023-04-18T00:10:15.782Z,67.33
2023-04-18T00:11:15.794Z,66.78
2023-04-18T00:12:15.814Z,66.61
2023-04-18T00:13:15.820Z,67.05
2023-04-18T00:14:16.035Z,67.80
2023-04-18T00:15:15.893Z,67.90
2023-04-18T00:16:15.920Z,68.11
2023-04-18T00:17:15.931Z,67.87
2023-04-18T00:18:15.921Z,67.46
2023-04-18T00:19:15.954Z,67.77
2023-04-18T00:20:15.933Z,67.77
2023-04-18T00:21:15.943Z,67.36
2023-04-18T00:22:15.935Z,67.36
2023-04-18T00:23:15.909Z,67.26
2023-04-18T00:24:16.136Z,67.57
2023-04-18T00:25:16.010Z,67.02
2023-04-18T00:26:15.983Z,67.67
2023-04-18T00:27:15.985Z,67.57
2023-04-18T00:28:16.053Z,67.64
2023-04-18T00:29:16.061Z,66.78
2023-04-18T00:30:16.047Z,66.82
2023-04-18T00:31:16.145Z,67.23
2023-04-18T00:32:16.120Z,66.92
2023-04-18T00:33:16.095Z,67.26
2023-04-18T00:34:16.131Z,67.57
2023-04-18T00:35:16.099Z,67.33
2023-04-18T00:36:16.094Z,67.57
2023-04-18T00:37:16.101Z,67.23
2023-04-18T00:38:16.090Z,66.69
2023-04-18T00:39:16.080Z,66.78
2023-04-18T00:40:16.176Z,66.38
2023-04-18T00:41:16.180Z,65.97
2023-04-18T00:42:16.181Z,66.28
2023-04-18T00:43:16.190Z,66.61
2023-04-18T00:44:16.359Z,67.26
2023-04-18T00:45:16.261Z,67.46
2023-04-18T00:46:16.304Z,67.43
2023-04-18T00:47:16.316Z,66.99
2023-04-18T00:48:16.317Z,66.72
2023-04-18T00:49:16.360Z,67.02
2023-04-18T00:50:16.371Z,67.57
2023-04-18T00:51:16.405Z,67.36
2023-04-18T00:52:16.426Z,67.13
2023-04-18T00:53:16.427Z,67.13
2023-04-18T00:54:16.478Z,67.36
2023-04-18T00:55:16.435Z,67.54
2023-04-18T00:56:16.480Z,67.23
2023-04-18T00:57:16.543Z,67.23
2023-04-18T00:58:16.595Z,66.72
2023-04-18T00:59:16.599Z,67.67
2023-04-18T01:00:16.608Z,67.87
2023-04-18T01:01:16.645Z,67.87
2023-04-18T01:02:16.771Z,67.43
2023-04-18T01:03:16.822Z,67.57
2023-04-18T01:04:17.115Z,68.01
2023-04-18T01:05:16.699Z,68.62
2023-04-18T01:06:16.714Z,68.62
2023-04-18T01:07:16.741Z,68.52
2023-04-18T01:08:16.730Z,67.67
2023-04-18T01:09:16.736Z,67.43
2023-04-18T01:10:16.734Z,66.69
2023-04-18T01:11:16.732Z,66.61
2023-04-18T01:12:16.741Z,66.92
2023-04-18T01:13:16.766Z,67.02
2023-04-18T01:14:16.801Z,67.57
2023-04-18T01:15:16.784Z,67.97
2023-04-18T01:16:16.890Z,67.33
2023-04-18T01:17:16.880Z,67.77
2023-04-18T01:18:16.862Z,67.64
2023-04-18T01:19:16.931Z,67.67
2023-04-18T01:20:17.011Z,67.74
2023-04-18T01:21:16.936Z,68.11
2023-04-18T01:22:17.013Z,68.83
2023-04-18T01:23:17.044Z,68.83
2023-04-18T01:24:17.041Z,68.73
2023-04-18T01:25:17.044Z,68.59
2023-04-18T01:26:17.043Z,68.15
2023-04-18T01:27:17.042Z,67.67
2023-04-18T01:28:17.054Z,68.18
2023-04-18T01:29:17.057Z,68.41
2023-04-18T01:30:17.094Z,68.83
2023-04-18T01:31:17.135Z,68.69
2023-04-18T01:32:17.113Z,68.38
2023-04-18T01:33:17.127Z,67.94
2023-04-18T01:34:17.162Z,67.97
2023-04-18T01:35:17.175Z,68.59
2023-04-18T01:36:17.138Z,69.03
2023-04-18T01:37:17.154Z,68.38
2023-04-18T01:38:17.151Z,67.64
2023-04-18T01:39:17.162Z,67.84
2023-04-18T01:40:17.170Z,67.71
2023-04-18T01:41:17.178Z,67.54
2023-04-18T01:42:17.173Z,68.49
2023-04-18T01:43:17.178Z,69.00
2023-04-18T01:44:17.189Z,68.90
2023-04-18T01:45:17.202Z,68.25
2023-04-18T01:46:17.274Z,68.01
2023-04-18T01:47:17.290Z,67.50
2023-04-18T01:48:17.292Z,67.71
2023-04-18T01:49:17.298Z,67.64
2023-04-18T01:50:17.323Z,68.05
2023-04-18T01:51:17.322Z,68.15
2023-04-18T01:52:17.346Z,68.35
2023-04-18T01:53:17.350Z,68.69
2023-04-18T01:54:17.349Z,69.20
2023-04-18T01:55:17.358Z,69.31
2023-04-18T01:56:17.375Z,68.46
2023-04-18T01:57:17.459Z,69.20
2023-04-18T01:58:17.431Z,69.65
2023-04-18T01:59:17.440Z,69.82
2023-04-18T02:00:17.448Z,69.20
2023-04-18T02:01:17.473Z,69.20
2023-04-18T02:02:17.593Z,69.95
2023-04-18T02:03:17.715Z,70.06
2023-04-18T02:04:17.738Z,69.95
2023-04-18T02:05:17.524Z,70.06
2023-04-18T02:06:17.528Z,70.16
2023-04-18T02:07:17.548Z,69.71
2023-04-18T02:08:17.525Z,69.85
2023-04-18T02:09:17.532Z,69.82
2023-04-18T02:10:17.551Z,69.71
2023-04-18T02:11:17.560Z,69.51
2023-04-18T02:12:17.585Z,69.92
2023-04-18T02:13:17.595Z,69.92
2023-04-18T02:14:17.598Z,69.58
2023-04-18T02:15:17.625Z,69.61
2023-04-18T02:16:17.685Z,69.17
2023-04-18T02:17:17.677Z,69.54
2023-04-18T02:18:17.683Z,70.91
2023-04-18T02:19:17.707Z,70.87
2023-04-18T02:20:17.712Z,70.12
2023-04-18T02:21:17.748Z,70.36
2023-04-18T02:22:17.790Z,70.43
2023-04-18T02:23:17.810Z,69.68
2023-04-18T02:24:17.821Z,69.20
2023-04-18T02:25:17.906Z,70.26
2023-04-18T02:26:17.879Z,71.32
2023-04-18T02:27:17.944Z,71.83
2023-04-18T02:28:17.975Z,71.49
2023-04-18T02:29:18.003Z,71.28
2023-04-18T02:30:18.005Z,70.43
2023-04-18T02:31:18.025Z,70.57
2023-04-18T02:32:18.055Z,70.87
2023-04-18T02:33:18.095Z,71.08
2023-04-18T02:34:18.122Z,71.32
2023-04-18T02:35:18.176Z,72.14
2023-04-18T02:36:18.188Z,72.03
2023-04-18T02:37:18.207Z,72.14
2023-04-18T02:38:18.231Z,72.03
2023-04-18T02:39:18.262Z,71.62
2023-04-18T02:40:18.246Z,72.03
2023-04-18T02:41:18.281Z,72.58
2023-04-18T02:42:18.292Z,72.68
2023-04-18T02:43:18.322Z,72.48
2023-04-18T02:44:18.311Z,72.99
2023-04-18T02:45:18.363Z,72.68
2023-04-18T02:46:18.361Z,73.10
2023-04-18T02:47:18.398Z,72.68
2023-04-18T02:48:18.437Z,72.92
2023-04-18T02:49:18.414Z,73.13
2023-04-18T02:50:18.502Z,73.44
2023-04-18T02:51:18.504Z,73.85
2023-04-18T02:52:18.552Z,74.15
2023-04-18T02:53:18.529Z,73.40
2023-04-18T02:54:18.552Z,73.10
2023-04-18T02:55:18.571Z,72.86
2023-04-18T02:56:18.605Z,72.44
2023-04-18T02:57:18.627Z,72.34
2023-04-18T02:58:18.656Z,72.14
2023-04-18T02:59:18.673Z,72.24
2023-04-18T03:00:18.702Z,72.24
2023-04-18T03:01:18.920Z,72.58
2023-04-18T03:02:18.828Z,72.89
2023-04-18T03:03:18.856Z,72.68
2023-04-18T03:04:18.829Z,72.78
2023-04-18T03:05:18.794Z,73.33
2023-04-18T03:06:18.820Z,73.85
2023-04-18T03:07:18.873Z,74.40
2023-04-18T03:08:18.944Z,74.70
2023-04-18T03:09:18.963Z,74.36
2023-04-18T03:10:18.986Z,74.26
2023-04-18T03:11:19.019Z,74.26
2023-04-18T03:12:19.098Z,74.36
2023-04-18T03:13:19.111Z,75.01
2023-04-18T03:14:19.161Z,74.80
2023-04-18T03:15:19.165Z,74.77
2023-04-18T03:16:19.215Z,74.66
2023-04-18T03:17:19.176Z,74.87
2023-04-18T03:18:19.219Z,74.77
2023-04-18T03:19:19.245Z,74.12
2023-04-18T03:20:19.268Z,73.36
2023-04-18T03:21:19.258Z,73.19
2023-04-18T03:22:19.305Z,73.50
2023-04-18T03:23:19.338Z,74.36
2023-04-18T03:24:19.399Z,74.87
2023-04-18T03:25:19.451Z,74.02
2023-04-18T03:26:19.520Z,74.36
2023-04-18T03:27:19.570Z,74.98
2023-04-18T03:28:19.608Z,74.46
2023-04-18T03:29:19.663Z,74.46
2023-04-18T03:30:19.684Z,75.08
2023-04-18T03:31:19.758Z,74.66
2023-04-18T03:32:19.809Z,74.77
2023-04-18T03:33:19.775Z,75.18
2023-04-18T03:34:19.812Z,75.08
2023-04-18T03:35:19.860Z,75.08
2023-04-18T03:36:19.897Z,74.63
2023-04-18T03:37:19.924Z,74.02
2023-04-18T03:38:19.924Z,74.66
2023-04-18T03:39:19.989Z,75.08
2023-04-18T03:40:20.031Z,75.08
2023-04-18T03:41:20.008Z,74.84
2023-04-18T03:42:20.002Z,74.84
2023-04-18T03:43:20.070Z,75.28
2023-04-18T03:44:20.063Z,76.14
2023-04-18T03:45:20.086Z,76.24
2023-04-18T03:46:20.136Z,76.20
2023-04-18T03:47:20.187Z,75.90
2023-04-18T03:48:20.242Z,75.56
2023-04-18T03:49:20.269Z,75.49
2023-04-18T03:50:20.288Z,76.00
2023-04-18T03:51:20.343Z,76.14
2023-04-18T03:52:20.396Z,75.90
2023-04-18T03:53:20.454Z,75.90
2023-04-18T03:54:20.449Z,75.69
2023-04-18T03:55:20.433Z,76.34
2023-04-18T03:56:20.498Z,76.86
2023-04-18T03:57:20.506Z,76.65
2023-04-18T03:58:21.643Z,76.20
2023-04-18T03:59:20.602Z,76.20
2023-04-18T04:00:20.616Z,76.31
2023-04-18T04:01:20.678Z,76.55
2023-04-18T04:02:20.790Z,76.96
2023-04-18T04:03:20.852Z,76.65
2023-04-18T04:04:20.842Z,76.65
2023-04-18T04:05:20.806Z,76.65
2023-04-18T04:06:20.848Z,77.26
2023-04-18T04:07:20.908Z,76.62
2023-04-18T04:08:20.917Z,76.10
2023-04-18T04:09:20.910Z,76.00
2023-04-18T04:10:20.964Z,76.00
2023-04-18T04:11:20.972Z,76.20
2023-04-18T04:12:20.985Z,76.34
2023-04-18T04:13:20.977Z,76.51
2023-04-18T04:14:20.961Z,76.41
2023-04-18T04:15:20.973Z,76.34
2023-04-18T04:16:21.003Z,76.41
2023-04-18T04:17:20.947Z,76.31
2023-04-18T04:18:20.976Z,75.76
2023-04-18T04:19:20.996Z,75.45
2023-04-18T04:20:21.005Z,75.90
2023-04-18T04:21:21.289Z,76.55
2023-04-18T04:22:21.071Z,77.17
2023-04-18T04:23:21.080Z,77.58
2023-04-18T04:24:21.135Z,77.17
2023-04-18T04:25:21.191Z,77.23
2023-04-18T04:26:21.268Z,76.62
2023-04-18T04:27:21.282Z,76.86
2023-04-18T04:28:21.328Z,77.78
2023-04-18T04:29:21.333Z,78.23
2023-04-18T04:30:21.373Z,78.09
2023-04-18T04:31:21.427Z,77.98
2023-04-18T04:32:21.419Z,77.88
2023-04-18T04:33:21.425Z,77.98
2023-04-18T04:34:21.448Z,78.85
2023-04-18T04:35:21.505Z,78.91
2023-04-18T04:36:21.536Z,78.39
2023-04-18T04:37:21.593Z,78.91
2023-04-18T04:38:21.607Z,79.15
2023-04-18T04:39:21.622Z,79.32
2023-04-18T04:40:21.635Z,79.22
2023-04-18T04:41:21.692Z,79.56
2023-04-18T04:42:21.728Z,80.63
2023-04-18T04:43:21.747Z,81.34
2023-04-18T04:44:21.830Z,81.00
2023-04-18T04:45:21.806Z,80.28
2023-04-18T04:46:21.846Z,80.69
2023-04-18T04:47:21.913Z,80.35
2023-04-18T04:48:21.887Z,79.38
2023-04-18T04:49:21.932Z,79.28
2023-04-18T04:50:22.001Z,79.28
2023-04-18T04:51:21.981Z,79.32
2023-04-18T04:52:22.023Z,80.28
2023-04-18T04:53:22.067Z,81.10
2023-04-18T04:54:22.139Z,80.76
2023-04-18T04:55:22.196Z,79.93
2023-04-18T04:56:22.185Z,80.58
2023-04-18T04:57:22.208Z,80.04
2023-04-18T04:58:22.285Z,80.04
2023-04-18T04:59:22.293Z,79.73
2023-04-18T05:00:22.287Z,80.04
2023-04-18T05:01:22.416Z,80.18
2023-04-18T05:02:22.487Z,80.79
2023-04-18T05:03:22.531Z,81.00
2023-04-18T05:04:22.577Z,80.45
2023-04-18T05:05:22.503Z,80.18
2023-04-18T05:06:22.552Z,80.00
2023-04-18T05:07:22.612Z,79.52
2023-04-18T05:08:22.598Z,79.87
2023-04-18T05:09:22.606Z,80.28
2023-04-18T05:10:22.602Z,80.35
2023-04-18T05:11:22.662Z,79.83
2023-04-18T05:12:22.729Z,79.93
2023-04-18T05:13:22.799Z,80.24
2023-04-18T05:14:22.822Z,79.80
2023-04-18T05:15:22.896Z,78.94
2023-04-18T05:16:23.038Z,78.22
2023-04-18T05:17:23.018Z,78.02
2023-04-18T05:18:23.020Z,77.50
2023-04-18T05:19:23.043Z,78.56
2023-04-18T05:20:23.102Z,78.77
2023-04-18T05:21:23.122Z,78.56
2023-04-18T05:22:23.160Z,78.87
2023-04-18T05:23:23.215Z,79.08
2023-04-18T05:24:23.235Z,79.08
2023-04-18T05:25:23.297Z,79.18
2023-04-18T05:26:23.368Z,78.53
2023-04-18T05:27:23.346Z,78.16
2023-04-18T05:28:23.378Z,78.67
2023-04-18T05:29:23.378Z,79.52
2023-04-18T05:30:23.375Z,79.38
2023-04-18T05:31:23.441Z,79.11
2023-04-18T05:32:23.510Z,79.93
2023-04-18T05:33:23.422Z,79.90
2023-04-18T05:34:23.442Z,79.08
2023-04-18T05:35:23.476Z,79.83
2023-04-18T05:36:23.482Z,80.24
2023-04-18T05:37:23.485Z,80.45
2023-04-18T05:38:23.499Z,80.14
2023-04-18T05:39:23.540Z,80.55
2023-04-18T05:40:23.624Z,80.45
2023-04-18T05:41:23.624Z,80.38
2023-04-18T05:42:23.697Z,80.96
2023-04-18T05:43:23.691Z,80.45
2023-04-18T05:44:23.769Z,80.45
2023-04-18T05:45:23.810Z,80.18
2023-04-18T05:46:24.016Z,81.41
2023-04-18T05:47:23.859Z,81.30
2023-04-18T05:48:23.829Z,80.96
2023-04-18T05:49:23.857Z,80.72
2023-04-18T05:50:23.901Z,79.86
2023-04-18T05:51:23.979Z,79.18
2023-04-18T05:52:24.012Z,79.90
2023-04-18T05:53:24.056Z,80.65
2023-04-18T05:54:24.130Z,81.00
2023-04-18T05:55:24.161Z,81.27
2023-04-18T05:56:24.187Z,81.06
2023-04-18T05:57:24.203Z,80.86
2023-04-18T05:58:24.227Z,81.06
2023-04-18T05:59:24.285Z,80.62
2023-04-18T06:00:24.365Z,79.86
2023-04-18T06:01:24.356Z,79.69
2023-04-18T06:02:24.626Z,80.72
2023-04-18T06:03:24.526Z,80.00
2023-04-18T06:04:24.588Z,80.00
2023-04-18T06:05:24.819Z,80.07
2023-04-18T06:06:24.541Z,79.90
2023-04-18T06:07:24.590Z,79.90
2023-04-18T06:08:24.634Z,80.41
2023-04-18T06:09:24.694Z,79.80
2023-04-18T06:10:24.716Z,80.21
2023-04-18T06:11:24.720Z,80.55
2023-04-18T06:12:24.718Z,82.03
2023-04-18T06:13:24.748Z,82.50
2023-04-18T06:14:24.780Z,81.37
2023-04-18T06:15:24.819Z,81.23
2023-04-18T06:16:24.931Z,80.99
2023-04-18T06:17:24.899Z,80.31
2023-04-18T06:18:24.907Z,80.10
2023-04-18T06:19:24.956Z,81.37
2023-04-18T06:20:25.052Z,81.43
2023-04-18T06:21:25.089Z,80.72
2023-04-18T06:22:25.088Z,80.51
2023-04-18T06:23:25.132Z,81.34
2023-04-18T06:24:25.129Z,81.13
2023-04-18T06:25:25.212Z,81.13
2023-04-18T06:26:25.225Z,80.37
2023-04-18T06:27:31.088Z,80.51
2023-04-18T06:28:25.258Z,81.34
2023-04-18T06:29:25.290Z,80.82
2023-04-18T06:30:25.326Z,80.41
2023-04-18T06:31:25.372Z,81.02
2023-04-18T06:32:25.461Z,80.41
2023-04-18T06:33:25.398Z,80.82
2023-04-18T06:34:25.421Z,80.68
2023-04-18T06:35:26.648Z,80.07
2023-04-18T06:36:25.429Z,80.07
2023-04-18T06:37:25.506Z,80.37
2023-04-18T06:38:25.472Z,80.58
2023-04-18T06:39:25.560Z,79.62
2023-04-18T06:40:27.172Z,79.24
2023-04-18T06:41:25.602Z,80.21
2023-04-18T06:42:25.607Z,81.13
2023-04-18T06:43:25.636Z,80.72
2023-04-18T06:44:25.647Z,80.82
2023-04-18T06:45:29.262Z,81.43
2023-04-18T06:46:27.146Z,81.23
2023-04-18T06:47:25.960Z,81.23
2023-04-18T06:48:26.010Z,80.82
2023-04-18T06:49:26.753Z,80.78
2023-04-18T06:50:25.920Z,79.93
2023-04-18T06:51:26.044Z,79.31
2023-04-18T06:52:25.975Z,79.62
2023-04-18T06:53:26.055Z,79.75
2023-04-18T06:54:26.125Z,80.17
2023-04-18T06:55:26.132Z,80.23
2023-04-18T06:56:26.247Z,79.41
2023-04-18T06:57:26.245Z,79.07
2023-04-18T06:58:26.281Z,78.25
2023-04-18T06:59:26.361Z,78.15
2023-04-18T07:00:26.361Z,77.91
2023-04-18T07:01:26.380Z,77.76
2023-04-18T07:02:26.435Z,76.75
2023-04-18T07:03:26.481Z,76.03
2023-04-18T07:04:26.598Z,76.54
2023-04-18T07:05:26.414Z,75.85
2023-04-18T07:06:26.424Z,75.59
2023-04-18T07:07:26.455Z,75.79
2023-04-18T07:08:26.637Z,75.55
2023-04-18T07:09:26.513Z,75.04
2023-04-18T07:10:26.613Z,75.04
2023-04-18T07:11:26.534Z,75.14
2023-04-18T07:12:26.547Z,74.76
2023-04-18T07:13:26.856Z,75.52
2023-04-18T07:14:26.677Z,75.38
2023-04-18T07:15:26.765Z,74.84
2023-04-18T07:16:26.750Z,74.59
2023-04-18T07:17:26.797Z,73.64
2023-04-18T07:18:37.419Z,73.77
2023-04-18T07:19:26.879Z,74.63
2023-04-18T07:20:26.968Z,74.46
2023-04-18T07:21:27.056Z,75.17
2023-04-18T07:22:27.057Z,74.66
2023-04-18T07:23:27.065Z,74.69
2023-04-18T07:24:27.102Z,73.57
2023-04-18T07:25:27.128Z,73.77
2023-04-18T07:26:27.232Z,73.68
2023-04-18T07:27:27.221Z,74.26
2023-04-18T07:28:27.284Z,74.93
2023-04-18T07:29:27.224Z,73.98
2023-04-18T07:30:27.281Z,74.29
2023-04-18T07:31:27.294Z,74.49
2023-04-18T07:32:27.332Z,74.18
2023-04-18T07:33:27.411Z,73.03
2023-04-18T07:34:27.411Z,73.94
2023-04-18T07:35:27.463Z,74.43
2023-04-18T07:36:27.375Z,74.59
2023-04-18T07:37:27.404Z,73.44
2023-04-18T07:38:27.426Z,73.27
2023-04-18T07:39:27.473Z,73.13
2023-04-18T07:40:27.528Z,73.77
2023-04-18T07:41:27.564Z,73.57
2023-04-18T07:42:27.627Z,73.44
2023-04-18T07:43:27.638Z,73.71
2023-04-18T07:44:27.712Z,74.76
2023-04-18T07:45:27.731Z,74.73
2023-04-18T07:46:27.755Z,75.31
2023-04-18T07:47:29.920Z,75.59
2023-04-18T07:48:27.835Z,75.62
2023-04-18T07:49:27.866Z,76.47
2023-04-18T07:50:27.843Z,77.12
2023-04-18T07:51:27.901Z,77.09
2023-04-18T07:52:27.910Z,76.50
2023-04-18T07:53:27.894Z,75.24
2023-04-18T07:54:27.931Z,74.39
2023-04-18T07:55:28.006Z,73.98
2023-04-18T07:56:28.077Z,73.81
2023-04-18T07:57:28.134Z,72.24
2023-04-18T07:58:28.147Z,71.22
2023-04-18T07:59:28.164Z,72.28
2023-04-18T08:00:28.208Z,72.04
2023-04-18T08:01:28.269Z,71.22
2023-04-18T08:02:28.438Z,72.21
2023-04-18T08:03:28.584Z,72.34
2023-04-18T08:04:30.073Z,73.91
2023-04-18T08:05:28.515Z,73.98
2023-04-18T08:06:28.500Z,73.33
2023-04-18T08:07:28.475Z,72.99
2023-04-18T08:08:28.521Z,72.34
2023-04-18T08:09:28.582Z,72.17
2023-04-18T08:10:28.591Z,72.52
2023-04-18T08:11:28.597Z,73.06
2023-04-18T08:12:28.578Z,73.54
2023-04-18T08:13:28.580Z,72.62
2023-04-18T08:14:28.666Z,72.45
2023-04-18T08:15:28.632Z,70.89
2023-04-18T08:16:28.715Z,71.09
2023-04-18T08:17:28.778Z,70.34
2023-04-18T08:18:28.710Z,69.29
2023-04-18T08:19:28.748Z,69.46
2023-04-18T08:20:28.764Z,69.96
2023-04-18T08:21:28.798Z,70.27
2023-04-18T08:22:28.864Z,70.51
2023-04-18T08:23:28.876Z,71.12
2023-04-18T08:24:28.901Z,70.78
2023-04-18T08:25:28.959Z,70.04
2023-04-18T08:26:28.941Z,69.76
2023-04-18T08:27:28.977Z,69.96
2023-04-18T08:28:28.963Z,71.39
2023-04-18T08:29:28.949Z,72.86
2023-04-18T08:30:29.005Z,73.36
2023-04-18T08:31:29.064Z,72.99
2023-04-18T08:32:29.176Z,71.73
2023-04-18T08:33:29.150Z,71.02
2023-04-18T08:34:29.216Z,71.87
2023-04-18T08:35:29.245Z,72.21
2023-04-18T08:36:29.299Z,72.62
2023-04-18T08:37:29.296Z,72.82
2023-04-18T08:38:29.288Z,72.82
2023-04-18T08:39:29.312Z,72.72
2023-04-18T08:40:29.310Z,72.52
2023-04-18T08:41:29.363Z,72.31
2023-04-18T08:42:29.401Z,72.72
2023-04-18T08:43:29.461Z,71.97
2023-04-18T08:44:29.449Z,72.52
2023-04-18T08:45:29.565Z,72.17
2023-04-18T08:46:29.571Z,71.70
2023-04-18T08:47:29.548Z,72.52
2023-04-18T08:48:29.558Z,72.21
2023-04-18T08:49:29.608Z,71.56
2023-04-18T08:50:29.654Z,71.33
2023-04-18T08:51:29.676Z,70.78
2023-04-18T08:52:29.818Z,69.93
2023-04-18T08:53:29.768Z,68.78
2023-04-18T08:54:29.802Z,69.53
2023-04-18T08:55:29.797Z,70.27
2023-04-18T08:56:29.818Z,71.02
2023-04-18T08:57:29.862Z,70.51
2023-04-18T08:58:29.853Z,71.19
2023-04-18T08:59:29.837Z,71.36
2023-04-18T09:00:29.869Z,70.51
2023-04-18T09:01:29.916Z,70.10
2023-04-18T09:02:30.016Z,71.70
2023-04-18T09:03:29.959Z,71.70
2023-04-18T09:04:29.998Z,72.00
2023-04-18T09:05:30.036Z,72.34
2023-04-18T09:06:30.079Z,71.91
2023-04-18T09:07:30.082Z,72.11
2023-04-18T09:08:30.115Z,72.11
2023-04-18T09:09:30.173Z,71.87
2023-04-18T09:10:30.221Z,70.81
2023-04-18T09:11:30.254Z,70.85
2023-04-18T09:12:30.304Z,70.17
2023-04-18T09:13:30.291Z,69.76
2023-04-18T09:14:30.336Z,69.42
2023-04-18T09:15:30.377Z,69.35
2023-04-18T09:16:30.445Z,69.56
2023-04-18T09:17:30.474Z,69.25
2023-04-18T09:18:30.444Z,69.32
2023-04-18T09:19:30.520Z,68.78
2023-04-18T09:20:30.584Z,68.24
2023-04-18T09:21:30.560Z,67.49
2023-04-18T09:22:30.559Z,66.68
2023-04-18T09:23:30.666Z,66.82
2023-04-18T09:24:30.685Z,66.78
2023-04-18T09:25:30.719Z,65.63
2023-04-18T09:26:30.735Z,65.43
2023-04-18T09:27:30.712Z,66.17
2023-04-18T09:28:30.809Z,66.27
2023-04-18T09:29:30.796Z,66.11
2023-04-18T09:30:30.843Z,64.59
2023-04-18T09:31:30.932Z,63.37
2023-04-18T09:32:30.964Z,63.91
2023-04-18T09:33:30.892Z,63.65
2023-04-18T09:34:30.895Z,62.71
2023-04-18T09:35:30.924Z,61.79
2023-04-18T09:36:30.939Z,61.49
2023-04-18T09:37:30.923Z,61.39
2023-04-18T09:38:30.943Z,62.13
2023-04-18T09:39:30.973Z,61.16
2023-04-18T09:40:31.011Z,60.95
2023-04-18T09:41:31.029Z,61.79
2023-04-18T09:42:30.980Z,61.62
2023-04-18T09:43:30.994Z,61.62
2023-04-18T09:44:31.033Z,61.79
2023-04-18T09:45:31.086Z,61.25
2023-04-18T09:46:31.116Z,60.06
2023-04-18T09:47:31.140Z,58.84
2023-04-18T09:48:31.113Z,59.25
2023-04-18T09:49:31.115Z,59.55
2023-04-18T09:50:31.180Z,59.45
2023-04-18T09:51:31.198Z,59.41
2023-04-18T09:52:31.244Z,61.16
2023-04-18T09:53:31.267Z,61.13
2023-04-18T09:54:31.270Z,58.58
2023-04-18T09:55:31.273Z,58.86
2023-04-18T09:56:31.238Z,57.62
2023-04-18T09:57:31.247Z,56.51
2023-04-18T09:58:31.292Z,57.24
2023-04-18T09:59:31.315Z,57.24
2023-04-18T10:00:31.377Z,58.18
2023-04-18T10:01:31.374Z,57.62
2023-04-18T10:02:31.546Z,57.11
2023-04-18T10:03:31.617Z,57.53
2023-04-18T10:04:31.548Z,58.94
2023-04-18T10:05:31.566Z,59.91
2023-04-18T10:06:31.548Z,60.14
2023-04-18T10:07:31.550Z,60.01
2023-04-18T10:08:31.594Z,60.14
2023-04-18T10:09:31.557Z,60.55
2023-04-18T10:10:31.583Z,60.68
2023-04-18T10:11:31.576Z,60.98
2023-04-18T10:12:31.572Z,60.47
2023-04-18T10:13:31.577Z,60.68
2023-04-18T10:14:31.678Z,60.78
2023-04-18T10:15:31.730Z,60.65
2023-04-18T10:16:33.390Z,60.42
2023-04-18T10:17:31.906Z,59.43
2023-04-18T10:18:31.922Z,60.24
2023-04-18T10:19:31.848Z,60.47
2023-04-18T10:20:31.924Z,60.91
2023-04-18T10:21:31.914Z,61.11
2023-04-18T10:22:32.013Z,60.68
2023-04-18T10:23:32.002Z,61.32
2023-04-18T10:24:32.040Z,61.34
2023-04-18T10:25:32.104Z,61.41
2023-04-18T10:26:32.075Z,61.01
2023-04-18T10:27:32.109Z,60.55
2023-04-18T10:28:32.143Z,59.14
2023-04-18T10:29:32.213Z,56.94
2023-04-18T10:30:32.283Z,56.89
2023-04-18T10:31:32.302Z,56.23
2023-04-18T10:32:32.284Z,56.23
2023-04-18T10:33:32.905Z,57.32
2023-04-18T10:34:32.266Z,57.70
2023-04-18T10:35:32.266Z,56.66
2023-04-18T10:36:32.309Z,56.99
2023-04-18T10:37:32.311Z,57.42
2023-04-18T10:38:32.339Z,57.83
2023-04-18T10:39:32.392Z,57.62
2023-04-18T10:40:32.405Z,57.32
2023-04-18T10:41:32.407Z,57.62
2023-04-18T10:42:32.403Z,57.40
2023-04-18T10:43:32.340Z,56.63
2023-04-18T10:44:32.351Z,55.07
2023-04-18T10:45:32.370Z,54.99
2023-04-18T10:46:33.048Z,54.46
2023-04-18T10:47:32.580Z,53.34
2023-04-18T10:48:32.427Z,52.29
2023-04-18T10:49:33.113Z,50.78
2023-04-18T10:50:32.507Z,49.25
2023-04-18T10:51:32.514Z,50.20
2023-04-18T10:52:32.600Z,51.36
2023-04-18T10:53:32.545Z,51.93
2023-04-18T10:54:32.571Z,52.06
2023-04-18T10:55:32.604Z,53.05
2023-04-18T10:56:32.654Z,52.89
2023-04-18T10:57:32.685Z,52.26
2023-04-18T10:58:32.712Z,51.81
2023-04-18T10:59:32.811Z,51.33
2023-04-18T11:00:32.893Z,52.61
2023-04-18T11:01:33.252Z,53.88
2023-04-18T11:02:33.075Z,54.49
2023-04-18T11:03:33.048Z,54.56
2023-04-18T11:04:32.962Z,53.93
2023-04-18T11:05:32.971Z,54.61
2023-04-18T11:06:33.014Z,56.05
2023-04-18T11:07:33.006Z,56.23
2023-04-18T11:08:33.007Z,55.02
2023-04-18T11:09:33.047Z,55.09
2023-04-18T11:10:33.050Z,54.25
2023-04-18T11:11:33.070Z,54.28
2023-04-18T11:12:33.110Z,54.71
2023-04-18T11:13:33.111Z,55.55
2023-04-18T11:14:33.146Z,55.80
2023-04-18T11:15:33.209Z,55.98
2023-04-18T11:16:33.314Z,55.73
2023-04-18T11:17:33.292Z,55.11
2023-04-18T11:18:33.258Z,54.76
2023-04-18T11:19:33.341Z,55.02
2023-04-18T11:20:33.383Z,55.65
2023-04-18T11:21:33.405Z,55.27
2023-04-18T11:22:33.473Z,54.16
2023-04-18T11:23:33.480Z,54.49
2023-04-18T11:24:33.495Z,54.31
2023-04-18T11:25:33.512Z,55.11
2023-04-18T11:26:33.589Z,54.58
2023-04-18T11:27:33.546Z,54.79
2023-04-18T11:28:33.555Z,54.46
2023-04-18T11:29:33.594Z,54.28
2023-04-18T11:30:33.569Z,54.58
2023-04-18T11:31:33.660Z,53.96
2023-04-18T11:32:33.804Z,53.96
2023-04-18T11:33:33.634Z,53.72
2023-04-18T11:34:33.763Z,53.42
2023-04-18T11:35:33.638Z,53.96
2023-04-18T11:36:33.668Z,54.05
2023-04-18T11:37:33.714Z,53.88
2023-04-18T11:48:35.600Z,54.66
2023-04-18T11:49:35.636Z,53.52
2023-04-18T11:50:35.675Z,52.56
2023-04-18T11:51:35.741Z,50.88
2023-04-18T11:52:35.681Z,51.23
2023-04-18T11:53:35.747Z,51.68
2023-04-18T11:54:35.784Z,51.96
2023-04-18T11:55:35.806Z,52.14
2023-04-18T11:56:36.932Z,53.05
2023-04-18T11:57:35.849Z,53.12
2023-04-18T11:58:35.903Z,53.05
2023-04-18T11:59:35.899Z,53.05
2023-04-18T12:00:35.921Z,53.14
2023-04-18T12:01:35.962Z,53.02
2023-04-18T12:02:36.038Z,53.25
2023-04-18T12:03:36.250Z,53.52
2023-04-18T12:04:36.236Z,53.65
2023-04-18T12:05:36.369Z,54.18
2023-04-18T12:06:36.065Z,54.89
2023-04-18T12:07:36.150Z,54.08
2023-04-18T12:08:36.097Z,54.28
2023-04-18T12:09:36.151Z,54.38
2023-04-18T12:10:36.214Z,54.08
2023-04-18T12:11:36.244Z,54.71
2023-04-18T12:12:36.267Z,54.69
2023-04-18T12:13:36.286Z,53.32
2023-04-18T12:14:36.294Z,54.28
2023-04-18T12:15:36.305Z,54.13
2023-04-18T12:16:36.372Z,53.02
2023-04-18T12:17:36.450Z,53.45
2023-04-18T12:18:36.450Z,54.08
2023-04-18T12:19:36.480Z,54.23
2023-04-18T12:20:36.558Z,54.94
2023-04-18T12:21:36.517Z,54.53
2023-04-18T12:22:36.577Z,54.44
2023-04-18T12:23:36.620Z,54.41
2023-04-18T12:24:36.637Z,54.61
2023-04-18T12:25:36.708Z,54.79
2023-04-18T12:26:36.695Z,53.60
2023-04-18T12:27:36.755Z,51.79
2023-04-18T12:28:36.766Z,51.61
2023-04-18T12:29:36.776Z,51.91
2023-04-18T12:30:37.817Z,53.78
2023-04-18T12:31:36.926Z,54.38
2023-04-18T12:32:36.961Z,53.80
2023-04-18T12:33:36.973Z,53.90
2023-04-18T12:34:36.971Z,53.88
2023-04-18T12:35:36.964Z,54.41
2023-04-18T12:36:37.021Z,54.49
2023-04-18T12:37:37.029Z,54.61
2023-04-18T12:38:37.042Z,54.51
2023-04-18T12:39:37.078Z,55.27
2023-04-18T12:40:37.177Z,56.44
2023-04-18T12:41:37.140Z,57.15
2023-04-18T12:42:37.171Z,56.13
2023-04-18T12:43:37.204Z,53.60
2023-04-18T12:44:37.251Z,51.93
2023-04-18T12:45:37.280Z,51.33
2023-04-18T12:46:37.347Z,50.76
2023-04-18T12:47:37.333Z,50.68
2023-04-18T12:48:37.294Z,51.13
2023-04-18T12:49:37.296Z,52.36
2023-04-18T12:50:37.303Z,50.82
2023-04-18T12:51:37.323Z,52.09
2023-04-18T12:52:37.310Z,52.54
2023-04-18T12:53:37.334Z,53.38
2023-04-18T12:54:38.049Z,54.33
2023-04-18T12:55:37.403Z,54.49
2023-04-18T12:56:37.420Z,53.75
2023-04-18T12:57:37.423Z,53.25
2023-04-18T12:58:37.484Z,53.05
2023-04-18T12:59:37.496Z,53.90
2023-04-18T13:00:37.647Z,54.53
2023-04-18T13:01:37.687Z,54.86
2023-04-18T13:02:37.805Z,55.10